createdAt,value
2022-08-24T00:01:08.975Z,19.58
2022-08-24T00:06:19.645Z,19.64
2022-08-24T00:11:24.951Z,19.63
2022-08-24T00:16:30.160Z,19.65
2022-08-24T00:21:40.014Z,19.52
2022-08-24T00:26:46.115Z,19.68
2022-08-24T00:31:51.280Z,19.62
2022-08-24T00:36:58.984Z,19.50
2022-08-24T00:42:04.036Z,19.69
2022-08-24T00:47:19.869Z,19.60
2022-08-24T00:52:33.507Z,19.39
2022-08-24T00:57:44.209Z,19.27
2022-08-24T01:02:53.510Z,19.32
2022-08-24T01:08:01.513Z,19.50
2022-08-24T01:13:09.850Z,19.48
2022-08-24T01:18:31.552Z,19.58
2022-08-24T01:23:44.078Z,19.67
2022-08-24T01:28:53.267Z,19.60
2022-08-24T01:33:59.036Z,19.64
2022-08-24T01:39:12.825Z,19.57
2022-08-24T01:44:17.943Z,19.29
2022-08-24T01:49:24.757Z,19.42
2022-08-24T01:54:32.341Z,19.39
2022-08-24T01:59:37.591Z,19.37
2022-08-24T02:04:44.258Z,19.37
2022-08-24T02:09:53.422Z,19.59
2022-08-24T02:14:58.640Z,19.42
2022-08-24T02:20:03.877Z,19.39
2022-08-24T02:25:12.070Z,19.33
2022-08-24T02:30:20.713Z,19.28
2022-08-24T02:35:26.070Z,19.12
2022-08-24T02:40:33.903Z,19.15
2022-08-24T02:45:42.499Z,19.05
2022-08-24T02:50:51.373Z,18.82
2022-08-24T02:55:59.314Z,18.61
2022-08-24T03:01:05.496Z,18.68
2022-08-24T03:06:23.096Z,18.73
2022-08-24T03:11:30.813Z,18.84
2022-08-24T03:16:36.829Z,18.72
2022-08-24T03:21:41.889Z,18.62
2022-08-24T03:26:49.576Z,18.42
2022-08-24T03:31:54.635Z,18.40
2022-08-24T03:37:00.612Z,18.28
2022-08-24T03:42:09.554Z,18.29
2022-08-24T03:47:14.527Z,18.22
2022-08-24T03:52:20.190Z,18.30
2022-08-24T03:57:32.277Z,18.45
2022-08-24T04:02:37.692Z,18.57
2022-08-24T04:07:43.267Z,18.27
2022-08-24T04:12:51.506Z,18.24
2022-08-24T04:18:00.140Z,18.54
2022-08-24T04:23:16.343Z,18.47
2022-08-24T04:28:27.071Z,18.25
2022-08-24T04:33:32.076Z,18.80
2022-08-24T04:38:37.110Z,18.58
2022-08-24T04:44:08.607Z,18.50
2022-08-24T04:49:14.124Z,18.69
2022-08-24T04:54:21.524Z,18.87
2022-08-24T04:59:41.337Z,18.89
2022-08-24T05:04:47.086Z,18.88
2022-08-24T05:09:52.330Z,18.89
2022-08-24T05:15:03.326Z,19.17
2022-08-24T05:20:14.580Z,19.08
2022-08-24T05:25:20.073Z,19.12
2022-08-24T05:30:27.622Z,19.13
2022-08-24T05:35:33.160Z,19.07
2022-08-24T05:40:42.348Z,19.00
2022-08-24T05:45:50.762Z,19.01
2022-08-24T05:50:56.568Z,19.13
2022-08-24T05:56:06.935Z,19.13
2022-08-24T06:01:18.561Z,19.48
2022-08-24T06:06:25.281Z,20.06
2022-08-24T06:11:32.281Z,19.97
2022-08-24T06:16:45.328Z,20.09
2022-08-24T06:21:52.952Z,19.52
2022-08-24T06:27:10.527Z,20.21
2022-08-24T06:32:18.118Z,20.30
2022-08-24T06:37:26.662Z,21.62
2022-08-24T06:42:35.208Z,22.72
2022-08-24T06:47:59.227Z,22.36
2022-08-24T06:53:06.120Z,21.55
2022-08-24T06:58:11.607Z,21.08
2022-08-24T07:03:21.105Z,20.82
2022-08-24T07:08:34.461Z,20.89
2022-08-24T07:13:40.230Z,20.92
2022-08-24T07:18:49.797Z,20.68
2022-08-24T07:24:01.281Z,21.49
2022-08-24T07:29:36.817Z,21.65
2022-08-24T07:34:46.535Z,21.57
2022-08-24T07:39:51.589Z,21.12
2022-08-24T07:44:57.579Z,21.19
2022-08-24T07:50:05.887Z,21.74
2022-08-24T07:55:12.636Z,21.86
2022-08-24T08:00:20.734Z,21.92
2022-08-24T08:05:34.241Z,21.52
2022-08-24T08:10:40.796Z,21.62
2022-08-24T08:15:46.220Z,21.54
2022-08-24T08:20:54.937Z,21.95
2022-08-24T08:26:02.001Z,22.71
2022-08-24T08:31:22.165Z,24.10
2022-08-24T08:36:31.585Z,24.13
2022-08-24T08:42:15.187Z,24.64
2022-08-24T08:47:52.443Z,24.81
2022-08-24T08:53:25.051Z,25.27
2022-08-24T08:58:57.527Z,23.83
2022-08-24T09:04:55.654Z,24.35
2022-08-24T09:10:29.070Z,23.97
2022-08-24T09:15:51.229Z,23.62
2022-08-24T09:21:18.645Z,23.31
2022-08-24T09:26:29.925Z,23.39
2022-08-24T09:31:51.800Z,23.80
2022-08-24T09:37:05.089Z,23.63
2022-08-24T09:42:48.574Z,23.73
2022-08-24T09:48:16.886Z,24.48
2022-08-24T09:53:58.253Z,24.89
2022-08-24T09:59:21.341Z,24.78
2022-08-24T10:04:38.746Z,24.95
2022-08-24T10:10:20.478Z,25.28
2022-08-24T10:15:32.698Z,25.29
2022-08-24T10:20:55.533Z,25.55
2022-08-24T10:26:07.781Z,24.55
2022-08-24T10:31:15.012Z,24.31
2022-08-24T10:36:50.939Z,24.32
2022-08-24T10:42:44.710Z,24.58
2022-08-24T10:48:15.351Z,24.89
2022-08-24T10:53:29.587Z,25.28
2022-08-24T10:58:56.095Z,25.15
2022-08-24T11:04:05.178Z,24.96
2022-08-24T11:09:19.680Z,24.77
2022-08-24T11:14:32.494Z,24.81
2022-08-24T11:19:38.309Z,24.69
2022-08-24T11:24:51.457Z,24.74
2022-08-24T11:30:06.339Z,24.75
2022-08-24T11:35:21.243Z,24.48
2022-08-24T11:40:32.795Z,24.68
2022-08-24T11:45:44.724Z,24.26
2022-08-24T11:50:58.897Z,24.09
2022-08-24T11:56:18.689Z,24.23
2022-08-24T12:01:30.607Z,24.51
2022-08-24T12:06:49.170Z,24.51
2022-08-24T12:12:06.794Z,24.76
2022-08-24T12:17:19.563Z,24.40
2022-08-24T12:22:25.687Z,24.72
2022-08-24T12:27:37.970Z,25.83
2022-08-24T12:32:48.334Z,26.21
2022-08-24T12:38:00.935Z,26.86
2022-08-24T12:43:11.895Z,26.77
2022-08-24T12:48:26.932Z,26.28
2022-08-24T12:53:47.737Z,26.55
2022-08-24T12:59:06.200Z,26.84
2022-08-24T13:04:20.647Z,26.14
2022-08-24T13:09:37.703Z,25.98
2022-08-24T13:14:54.041Z,26.59
2022-08-24T13:20:23.580Z,26.16
2022-08-24T13:25:46.453Z,25.86
2022-08-24T13:31:26.790Z,25.71
2022-08-24T13:37:14.397Z,25.77
2022-08-24T13:42:32.153Z,25.70
2022-08-24T13:47:52.520Z,25.80
2022-08-24T13:53:16.539Z,26.19
2022-08-24T13:58:38.460Z,26.01
2022-08-24T14:04:11.309Z,26.35
2022-08-24T14:09:37.464Z,25.94
2022-08-24T14:15:09.623Z,25.30
2022-08-24T14:20:22.473Z,25.59
2022-08-24T14:25:33.932Z,25.70
2022-08-24T14:30:50.258Z,26.02
2022-08-24T14:36:21.365Z,26.02
2022-08-24T14:41:47.903Z,25.95
2022-08-24T14:47:05.960Z,25.86
2022-08-24T14:52:23.355Z,25.67
2022-08-24T14:58:00.618Z,25.94
2022-08-24T15:03:31.144Z,25.61
2022-08-24T15:08:43.201Z,25.27
2022-08-24T15:13:56.997Z,25.85
2022-08-24T15:19:11.602Z,25.95
2022-08-24T15:24:37.431Z,26.22
2022-08-24T15:29:54.638Z,26.01
2022-08-24T15:35:01.206Z,26.03
2022-08-24T15:40:15.339Z,25.94
2022-08-24T15:45:23.224Z,26.02
2022-08-24T15:50:32.085Z,26.15
2022-08-24T15:55:40.865Z,25.98
2022-08-24T16:01:01.026Z,26.08
2022-08-24T16:06:27.016Z,25.77
2022-08-24T16:11:38.426Z,25.47
2022-08-24T16:16:48.409Z,25.46
2022-08-24T16:22:01.086Z,25.18
2022-08-24T16:27:09.986Z,25.55
2022-08-24T16:32:21.732Z,25.45
2022-08-24T16:37:32.111Z,25.01
2022-08-24T16:42:38.518Z,25.33
2022-08-24T16:47:47.099Z,25.24
2022-08-24T16:52:52.666Z,25.06
2022-08-24T16:58:01.675Z,25.15
2022-08-24T17:03:12.918Z,25.08
2022-08-24T17:08:20.374Z,25.12
2022-08-24T17:13:48.274Z,25.03
2022-08-24T17:18:57.890Z,24.77
2022-08-24T17:24:04.000Z,24.69
2022-08-24T17:29:12.318Z,24.69
2022-08-24T17:34:27.757Z,24.58
2022-08-24T17:39:34.133Z,24.47
2022-08-24T17:44:39.552Z,24.29
2022-08-24T17:49:47.234Z,24.22
2022-08-24T17:54:52.113Z,24.15
2022-08-24T17:59:57.493Z,23.96
2022-08-24T18:05:05.550Z,23.83
2022-08-24T18:10:13.516Z,23.81
2022-08-24T18:15:18.380Z,23.76
2022-08-24T18:20:31.202Z,23.53
2022-08-24T18:25:40.375Z,23.58
2022-08-24T18:30:46.753Z,23.42
2022-08-24T18:35:56.095Z,23.55
2022-08-24T18:41:06.982Z,23.13
2022-08-24T18:46:13.921Z,23.00
2022-08-24T18:56:32.886Z,22.74
2022-08-24T19:01:59.501Z,22.59
2022-08-24T19:07:07.277Z,22.52
2022-08-24T19:12:13.146Z,22.67
2022-08-24T19:17:18.598Z,22.66
2022-08-24T19:22:26.958Z,22.39
2022-08-24T19:27:31.977Z,22.33
2022-08-24T19:32:39.618Z,22.17
2022-08-24T19:37:49.796Z,21.87
2022-08-24T19:42:58.452Z,22.03
2022-08-24T19:48:04.431Z,21.91
2022-08-24T19:53:12.606Z,21.77
2022-08-24T19:58:25.361Z,21.75
2022-08-24T20:03:33.762Z,21.58
2022-08-24T20:08:41.654Z,21.51
2022-08-24T20:13:50.286Z,21.57
2022-08-24T20:18:56.198Z,21.51
2022-08-24T20:24:04.537Z,21.42
2022-08-24T20:29:15.298Z,21.41
2022-08-24T20:34:20.885Z,21.25
2022-08-24T20:39:29.590Z,21.19
2022-08-24T20:44:34.713Z,21.09
2022-08-24T20:49:40.202Z,21.05
2022-08-24T20:54:48.092Z,20.95
2022-08-24T20:59:52.986Z,20.84
2022-08-24T21:04:57.887Z,20.69
2022-08-24T21:10:09.731Z,20.52
2022-08-24T21:15:15.511Z,20.44
2022-08-24T21:20:22.043Z,20.29
2022-08-24T21:25:29.953Z,20.36
2022-08-24T21:30:35.079Z,20.38
2022-08-24T21:35:41.430Z,20.31
2022-08-24T21:40:49.578Z,20.22
2022-08-24T21:45:55.224Z,20.21
2022-08-24T21:51:00.303Z,20.30
2022-08-24T21:56:08.185Z,20.10
2022-08-24T22:01:14.953Z,20.26
2022-08-24T22:06:20.074Z,20.18
2022-08-24T22:11:27.614Z,20.08
2022-08-24T22:16:33.311Z,20.09
2022-08-24T22:21:47.829Z,20.00
2022-08-24T22:26:55.880Z,19.92
2022-08-24T22:32:00.801Z,19.87
2022-08-24T22:37:05.874Z,19.86
2022-08-24T22:42:13.610Z,19.91
2022-08-24T22:47:19.410Z,19.71
2022-08-24T22:52:25.200Z,19.48
2022-08-24T22:57:33.232Z,19.48
2022-08-24T23:02:38.557Z,19.28
2022-08-24T23:07:43.508Z,19.36
2022-08-24T23:12:51.009Z,19.36
2022-08-24T23:17:55.923Z,19.31
2022-08-24T23:23:00.856Z,19.21
2022-08-24T23:28:08.606Z,19.17
2022-08-24T23:33:13.459Z,19.07
2022-08-24T23:38:18.367Z,19.12
2022-08-24T23:43:25.849Z,18.98
2022-08-24T23:48:30.832Z,18.73
2022-08-24T23:53:36.021Z,18.82
2022-08-24T23:58:44.424Z,18.73
